sensor_id;sensor_type;location;lat;lon;timestamp;pressure;altitude;pressure_sealevel;temperature;humidity
54910;BME280;63189;51.240;9.964;2023-04-25T00:00:38;97063.81;;;5.67;85.42
54910;BME280;63189;51.240;9.964;2023-04-25T00:03:03;97062.28;;;5.58;84.84
54910;BME280;63189;51.240;9.964;2023-04-25T00:05:30;97060.47;;;5.62;84.65
54910;BME280;63189;51.240;9.964;2023-04-25T00:07:57;97073.28;;;5.66;85.69
54910;BME280;63189;51.240;9.964;2023-04-25T00:10:22;97066.31;;;5.70;85.31
54910;BME280;63189;51.240;9.964;2023-04-25T00:12:48;97063.00;;;5.65;85.33
54910;BME280;63189;51.240;9.964;2023-04-25T00:15:13;97072.53;;;5.61;85.02
54910;BME280;63189;51.240;9.964;2023-04-25T00:17:39;97064.03;;;5.58;85.75
54910;BME280;63189;51.240;9.964;2023-04-25T00:20:05;97078.69;;;5.57;85.66
54910;BME280;63189;51.240;9.964;2023-04-25T00:22:32;97066.69;;;5.55;86.32
54910;BME280;63189;51.240;9.964;2023-04-25T00:24:58;97064.91;;;5.57;85.57
54910;BME280;63189;51.240;9.964;2023-04-25T00:27:26;97070.91;;;5.59;85.77
54910;BME280;63189;51.240;9.964;2023-04-25T00:29:52;97062.41;;;5.54;85.78
54910;BME280;63189;51.240;9.964;2023-04-25T00:32:17;97060.09;;;5.43;86.09
54910;BME280;63189;51.240;9.964;2023-04-25T00:34:42;97066.16;;;5.42;86.86
54910;BME280;63189;51.240;9.964;2023-04-25T00:37:08;97061.97;;;5.36;86.92
54910;BME280;63189;51.240;9.964;2023-04-25T00:39:33;97073.13;;;5.38;87.20
54910;BME280;63189;51.240;9.964;2023-04-25T00:41:59;97061.88;;;5.39;87.08
54910;BME280;63189;51.240;9.964;2023-04-25T00:44:26;97069.63;;;5.39;86.25
54910;BME280;63189;51.240;9.964;2023-04-25T00:46:53;97061.00;;;5.42;86.37
54910;BME280;63189;51.240;9.964;2023-04-25T00:49:19;97061.03;;;5.39;86.51
54910;BME280;63189;51.240;9.964;2023-04-25T00:51:44;97052.59;;;5.32;86.84
54910;BME280;63189;51.240;9.964;2023-04-25T00:54:11;97064.69;;;5.32;87.53
54910;BME280;63189;51.240;9.964;2023-04-25T00:56:37;97055.25;;;5.29;87.64
54910;BME280;63189;51.240;9.964;2023-04-25T00:59:03;97057.72;;;5.34;87.25
54910;BME280;63189;51.240;9.964;2023-04-25T01:01:29;97050.81;;;5.34;87.47
54910;BME280;63189;51.240;9.964;2023-04-25T01:03:58;97054.13;;;5.39;87.77
54910;BME280;63189;51.240;9.964;2023-04-25T01:06:23;97046.25;;;5.45;86.93
54910;BME280;63189;51.240;9.964;2023-04-25T01:08:49;97042.84;;;5.43;87.54
54910;BME280;63189;51.240;9.964;2023-04-25T01:11:14;97045.34;;;5.46;87.23
54910;BME280;63189;51.240;9.964;2023-04-25T01:13:40;97046.16;;;5.48;87.37
54910;BME280;63189;51.240;9.964;2023-04-25T01:16:06;97041.97;;;5.44;87.36
54910;BME280;63189;51.240;9.964;2023-04-25T01:18:31;97050.66;;;5.40;87.43
54910;BME280;63189;51.240;9.964;2023-04-25T01:21:02;97055.81;;;5.40;87.66
54910;BME280;63189;51.240;9.964;2023-04-25T01:23:32;97055.81;;;5.40;87.79
54910;BME280;63189;51.240;9.964;2023-04-25T01:25:58;97056.81;;;5.36;88.40
54910;BME280;63189;51.240;9.964;2023-04-25T01:28:24;97055.06;;;5.37;88.13
54910;BME280;63189;51.240;9.964;2023-04-25T01:30:50;97054.22;;;5.36;88.48
54910;BME280;63189;51.240;9.964;2023-04-25T01:33:17;97062.84;;;5.35;88.26
54910;BME280;63189;51.240;9.964;2023-04-25T01:35:42;97057.78;;;5.32;88.41
54910;BME280;63189;51.240;9.964;2023-04-25T01:38:08;97067.25;;;5.32;88.01
54910;BME280;63189;51.240;9.964;2023-04-25T01:40:33;97063.88;;;5.28;87.69
54910;BME280;63189;51.240;9.964;2023-04-25T01:42:59;97060.34;;;5.32;88.09
54910;BME280;63189;51.240;9.964;2023-04-25T01:45:25;97055.19;;;5.31;89.26
54910;BME280;63189;51.240;9.964;2023-04-25T01:47:50;97055.19;;;5.31;88.78
54910;BME280;63189;51.240;9.964;2023-04-25T01:50:17;97062.19;;;5.27;88.79
54910;BME280;63189;51.240;9.964;2023-04-25T01:52:45;97058.84;;;5.24;89.14
54910;BME280;63189;51.240;9.964;2023-04-25T01:55:11;97057.13;;;5.22;89.25
54910;BME280;63189;51.240;9.964;2023-04-25T01:57:36;97052.88;;;5.20;88.46
54910;BME280;63189;51.240;9.964;2023-04-25T02:00:04;97055.53;;;5.17;88.48
54910;BME280;63189;51.240;9.964;2023-04-25T02:02:30;97056.34;;;5.19;88.35
54910;BME280;63189;51.240;9.964;2023-04-25T02:04:55;97056.41;;;5.16;88.29
54910;BME280;63189;51.240;9.964;2023-04-25T02:07:21;97066.84;;;5.13;88.52
54910;BME280;63189;51.240;9.964;2023-04-25T02:09:46;97056.56;;;5.10;87.95
54910;BME280;63189;51.240;9.964;2023-04-25T02:12:12;97058.34;;;5.08;88.12
54910;BME280;63189;51.240;9.964;2023-04-25T02:14:37;97054.94;;;5.06;87.72
54910;BME280;63189;51.240;9.964;2023-04-25T02:17:04;97058.44;;;5.03;88.47
54910;BME280;63189;51.240;9.964;2023-04-25T02:19:29;97049.94;;;4.98;88.53
54910;BME280;63189;51.240;9.964;2023-04-25T02:21:54;97057.72;;;4.97;88.39
54910;BME280;63189;51.240;9.964;2023-04-25T02:24:20;97049.13;;;4.96;88.66
54910;BME280;63189;51.240;9.964;2023-04-25T02:26:45;97040.63;;;4.92;88.67
54910;BME280;63189;51.240;9.964;2023-04-25T02:29:12;97044.91;;;4.93;88.79
54910;BME280;63189;51.240;9.964;2023-04-25T02:31:37;97045.78;;;4.92;88.97
54910;BME280;63189;51.240;9.964;2023-04-25T02:34:02;97049.16;;;4.95;88.37
54910;BME280;63189;51.240;9.964;2023-04-25T02:36:28;97041.50;;;4.91;88.42
54910;BME280;63189;51.240;9.964;2023-04-25T02:38:55;97039.81;;;4.90;87.97
54910;BME280;63189;51.240;9.964;2023-04-25T02:41:20;97051.91;;;4.87;88.01
54910;BME280;63189;51.240;9.964;2023-04-25T02:43:46;97058.00;;;4.84;88.74
54910;BME280;63189;51.240;9.964;2023-04-25T02:46:11;97059.00;;;4.77;88.72
54910;BME280;63189;51.240;9.964;2023-04-25T02:48:36;97051.28;;;4.77;88.72
54910;BME280;63189;51.240;9.964;2023-04-25T02:51:02;97041.97;;;4.70;88.59
54910;BME280;63189;51.240;9.964;2023-04-25T02:53:27;97049.72;;;4.69;88.84
54910;BME280;63189;51.240;9.964;2023-04-25T02:55:52;97058.44;;;4.64;88.67
54910;BME280;63189;51.240;9.964;2023-04-25T02:58:18;97046.44;;;4.62;89.14
54910;BME280;63189;51.240;9.964;2023-04-25T03:00:44;97042.13;;;4.62;88.94
54910;BME280;63189;51.240;9.964;2023-04-25T03:03:10;97041.41;;;4.56;89.17
54910;BME280;63189;51.240;9.964;2023-04-25T03:05:35;97044.06;;;4.53;88.94
54910;BME280;63189;51.240;9.964;2023-04-25T03:08:01;97039.06;;;4.45;89.11
54910;BME280;63189;51.240;9.964;2023-04-25T03:10:26;97044.25;;;4.44;89.25
54910;BME280;63189;51.240;9.964;2023-04-25T03:12:51;97045.09;;;4.44;89.03
54910;BME280;63189;51.240;9.964;2023-04-25T03:15:17;97042.44;;;4.49;89.34
54910;BME280;63189;51.240;9.964;2023-04-25T03:17:42;97048.41;;;4.51;89.11
54910;BME280;63189;51.240;9.964;2023-04-25T03:20:08;97038.94;;;4.51;88.50
54910;BME280;63189;51.240;9.964;2023-04-25T03:22:34;97049.22;;;4.53;88.56
54910;BME280;63189;51.240;9.964;2023-04-25T03:24:59;97048.38;;;4.52;88.33
54910;BME280;63189;51.240;9.964;2023-04-25T03:27:24;97047.59;;;4.47;88.85
54910;BME280;63189;51.240;9.964;2023-04-25T03:29:50;97043.44;;;4.42;89.01
54910;BME280;63189;51.240;9.964;2023-04-25T03:32:15;97047.66;;;4.46;88.85
54910;BME280;63189;51.240;9.964;2023-04-25T03:34:40;97049.31;;;4.50;88.84
54910;BME280;63189;51.240;9.964;2023-04-25T03:37:06;97050.09;;;4.52;89.09
54910;BME280;63189;51.240;9.964;2023-04-25T03:39:31;97057.00;;;4.51;89.71
54910;BME280;63189;51.240;9.964;2023-04-25T03:41:57;97045.84;;;4.51;89.31
54910;BME280;63189;51.240;9.964;2023-04-25T03:44:22;97045.88;;;4.48;89.23
54910;BME280;63189;51.240;9.964;2023-04-25T03:46:49;97052.53;;;4.59;89.29
54910;BME280;63189;51.240;9.964;2023-04-25T03:49:14;97052.44;;;4.64;88.88
54910;BME280;63189;51.240;9.964;2023-04-25T03:51:39;97058.38;;;4.68;89.22
54910;BME280;63189;51.240;9.964;2023-04-25T03:54:05;97049.72;;;4.70;89.64
54910;BME280;63189;51.240;9.964;2023-04-25T03:56:30;97055.69;;;4.72;89.80
54910;BME280;63189;51.240;9.964;2023-04-25T03:58:55;97055.69;;;4.72;91.48
54910;BME280;63189;51.240;9.964;2023-04-25T04:01:20;97060.00;;;4.72;90.47
54910;BME280;63189;51.240;9.964;2023-04-25T04:03:46;97058.28;;;4.72;90.96
54910;BME280;63189;51.240;9.964;2023-04-25T04:06:11;97059.22;;;4.68;91.48
54910;BME280;63189;51.240;9.964;2023-04-25T04:08:38;97061.78;;;4.70;91.90
54910;BME280;63189;51.240;9.964;2023-04-25T04:11:03;97060.88;;;4.72;91.04
54910;BME280;63189;51.240;9.964;2023-04-25T04:13:29;97063.34;;;4.77;90.89
54910;BME280;63189;51.240;9.964;2023-04-25T04:15:56;97065.88;;;4.78;91.62
54910;BME280;63189;51.240;9.964;2023-04-25T04:18:21;97057.59;;;4.64;91.15
54910;BME280;63189;51.240;9.964;2023-04-25T04:20:47;97071.28;;;4.69;91.08
54910;BME280;63189;51.240;9.964;2023-04-25T04:23:12;97067.66;;;4.76;90.53
54910;BME280;63189;51.240;9.964;2023-04-25T04:25:38;97078.06;;;4.73;91.54
54910;BME280;63189;51.240;9.964;2023-04-25T04:28:05;97072.81;;;4.76;91.80
54910;BME280;63189;51.240;9.964;2023-04-25T04:30:31;97078.81;;;4.77;91.39
54910;BME280;63189;51.240;9.964;2023-04-25T04:32:57;97076.28;;;4.75;91.34
54910;BME280;63189;51.240;9.964;2023-04-25T04:35:23;97077.91;;;4.79;91.34
54910;BME280;63189;51.240;9.964;2023-04-25T04:37:50;97071.78;;;4.85;91.56
54910;BME280;63189;51.240;9.964;2023-04-25T04:40:16;97075.13;;;4.88;92.21
54910;BME280;63189;51.240;9.964;2023-04-25T04:42:42;97073.34;;;4.92;91.94
54910;BME280;63189;51.240;9.964;2023-04-25T04:45:08;97083.59;;;4.95;92.94
54910;BME280;63189;51.240;9.964;2023-04-25T04:47:34;97086.19;;;4.95;92.69
54910;BME280;63189;51.240;9.964;2023-04-25T04:50:03;97092.06;;;5.00;92.65
54910;BME280;63189;51.240;9.964;2023-04-25T04:52:29;97080.00;;;5.02;92.08
54910;BME280;63189;51.240;9.964;2023-04-25T04:54:55;97088.44;;;5.09;92.01
54910;BME280;63189;51.240;9.964;2023-04-25T04:57:20;97090.06;;;5.14;91.95
54910;BME280;63189;51.240;9.964;2023-04-25T04:59:45;97089.94;;;5.19;91.90
54910;BME280;63189;51.240;9.964;2023-04-25T05:02:11;97090.78;;;5.21;91.72
54910;BME280;63189;51.240;9.964;2023-04-25T05:04:36;97091.53;;;5.25;91.74
54910;BME280;63189;51.240;9.964;2023-04-25T05:07:02;97094.09;;;5.26;91.21
54910;BME280;63189;51.240;9.964;2023-04-25T05:09:27;97108.78;;;5.24;92.51
54910;BME280;63189;51.240;9.964;2023-04-25T05:11:52;97117.47;;;5.21;92.37
54910;BME280;63189;51.240;9.964;2023-04-25T05:14:18;97110.56;;;5.20;91.94
54910;BME280;63189;51.240;9.964;2023-04-25T05:16:43;97116.53;;;5.24;92.11
54910;BME280;63189;51.240;9.964;2023-04-25T05:19:09;97115.59;;;5.27;93.15
54910;BME280;63189;51.240;9.964;2023-04-25T05:21:34;97112.94;;;5.30;91.98
54910;BME280;63189;51.240;9.964;2023-04-25T05:24:00;97114.69;;;5.29;92.11
54910;BME280;63189;51.240;9.964;2023-04-25T05:26:26;97119.84;;;5.29;92.32
54910;BME280;63189;51.240;9.964;2023-04-25T05:28:56;97119.81;;;5.31;92.12
54910;BME280;63189;51.240;9.964;2023-04-25T05:31:22;97120.63;;;5.34;93.04
54910;BME280;63189;51.240;9.964;2023-04-25T05:33:47;97124.00;;;5.36;92.36
54910;BME280;63189;51.240;9.964;2023-04-25T05:36:12;97118.78;;;5.38;93.05
54910;BME280;63189;51.240;9.964;2023-04-25T05:38:37;97124.81;;;5.38;92.76
54910;BME280;63189;51.240;9.964;2023-04-25T05:41:03;97126.47;;;5.42;92.96
54910;BME280;63189;51.240;9.964;2023-04-25T05:43:28;97131.56;;;5.45;93.28
54910;BME280;63189;51.240;9.964;2023-04-25T05:45:53;97133.16;;;5.49;93.21
54910;BME280;63189;51.240;9.964;2023-04-25T05:48:19;97131.50;;;5.47;93.33
54910;BME280;63189;51.240;9.964;2023-04-25T05:50:44;97136.63;;;5.48;94.17
54910;BME280;63189;51.240;9.964;2023-04-25T05:53:09;97142.56;;;5.52;93.02
54910;BME280;63189;51.240;9.964;2023-04-25T05:55:35;97135.75;;;5.49;95.24
54910;BME280;63189;51.240;9.964;2023-04-25T05:58:00;97141.88;;;5.45;95.02
54910;BME280;63189;51.240;9.964;2023-04-25T06:00:26;97136.72;;;5.45;94.47
54910;BME280;63189;51.240;9.964;2023-04-25T06:02:51;97151.47;;;5.42;96.64
54910;BME280;63189;51.240;9.964;2023-04-25T06:05:16;97150.59;;;5.41;96.66
54910;BME280;63189;51.240;9.964;2023-04-25T06:07:42;97156.63;;;5.40;97.58
54910;BME280;63189;51.240;9.964;2023-04-25T06:10:07;97155.75;;;5.41;97.36
54910;BME280;63189;51.240;9.964;2023-04-25T06:12:33;97154.91;;;5.41;99.55
54910;BME280;63189;51.240;9.964;2023-04-25T06:14:59;97161.75;;;5.43;100.00
54910;BME280;63189;51.240;9.964;2023-04-25T06:17:24;97161.75;;;5.43;100.00
54910;BME280;63189;51.240;9.964;2023-04-25T06:19:50;97155.75;;;5.43;100.00
54910;BME280;63189;51.240;9.964;2023-04-25T06:22:15;97148.75;;;5.46;100.00
54910;BME280;63189;51.240;9.964;2023-04-25T06:24:41;97155.63;;;5.47;100.00
54910;BME280;63189;51.240;9.964;2023-04-25T06:27:06;97160.66;;;5.54;100.00
54910;BME280;63189;51.240;9.964;2023-04-25T06:29:31;97160.66;;;5.54;100.00
54910;BME280;63189;51.240;9.964;2023-04-25T06:31:57;97160.59;;;5.57;100.00
54910;BME280;63189;51.240;9.964;2023-04-25T06:34:22;97168.25;;;5.60;100.00
54910;BME280;63189;51.240;9.964;2023-04-25T06:36:47;97168.22;;;5.63;100.00
54910;BME280;63189;51.240;9.964;2023-04-25T06:39:13;97172.50;;;5.64;100.00
54910;BME280;63189;51.240;9.964;2023-04-25T06:41:38;97172.50;;;5.64;100.00
54910;BME280;63189;51.240;9.964;2023-04-25T06:44:03;97188.06;;;5.61;100.00
54910;BME280;63189;51.240;9.964;2023-04-25T06:46:29;97183.84;;;5.57;100.00
54910;BME280;63189;51.240;9.964;2023-04-25T06:48:54;97186.56;;;5.50;100.00
54910;BME280;63189;51.240;9.964;2023-04-25T06:51:20;97189.34;;;5.41;100.00
54910;BME280;63189;51.240;9.964;2023-04-25T06:53:45;97190.25;;;5.40;100.00
54910;BME280;63189;51.240;9.964;2023-04-25T06:56:10;97193.72;;;5.39;100.00
54910;BME280;63189;51.240;9.964;2023-04-25T06:58:36;97198.00;;;5.42;100.00
54910;BME280;63189;51.240;9.964;2023-04-25T07:01:01;97198.84;;;5.41;100.00
54910;BME280;63189;51.240;9.964;2023-04-25T07:03:26;97202.44;;;5.35;100.00
54910;BME280;63189;51.240;9.964;2023-04-25T07:05:52;97205.91;;;5.34;100.00
54910;BME280;63189;51.240;9.964;2023-04-25T07:08:17;97207.59;;;5.35;100.00
54910;BME280;63189;51.240;9.964;2023-04-25T07:10:42;97209.22;;;5.39;100.00
54910;BME280;63189;51.240;9.964;2023-04-25T07:13:08;97209.91;;;5.47;100.00
54910;BME280;63189;51.240;9.964;2023-04-25T07:15:33;97201.28;;;5.48;100.00
54910;BME280;63189;51.240;9.964;2023-04-25T07:17:59;97214.91;;;5.55;100.00
54910;BME280;63189;51.240;9.964;2023-04-25T07:20:24;97212.44;;;5.50;100.00
54910;BME280;63189;51.240;9.964;2023-04-25T07:22:49;97225.38;;;5.49;100.00
54910;BME280;63189;51.240;9.964;2023-04-25T07:25:16;97218.44;;;5.53;100.00
54910;BME280;63189;51.240;9.964;2023-04-25T07:27:41;97225.31;;;5.52;100.00
54910;BME280;63189;51.240;9.964;2023-04-25T07:30:07;97226.25;;;5.49;100.00
54910;BME280;63189;51.240;9.964;2023-04-25T07:32:32;97227.09;;;5.50;100.00
54910;BME280;63189;51.240;9.964;2023-04-25T07:34:58;97233.22;;;5.46;100.00
54910;BME280;63189;51.240;9.964;2023-04-25T07:37:23;97228.09;;;5.44;100.00
54910;BME280;63189;51.240;9.964;2023-04-25T07:39:48;97231.47;;;5.46;100.00
54910;BME280;63189;51.240;9.964;2023-04-25T07:42:14;97238.34;;;5.47;100.00
54910;BME280;63189;51.240;9.964;2023-04-25T07:44:39;97242.59;;;5.50;100.00
54910;BME280;63189;51.240;9.964;2023-04-25T07:47:09;97245.09;;;5.55;100.00
54910;BME280;63189;51.240;9.964;2023-04-25T07:49:35;97243.25;;;5.60;100.00
54910;BME280;63189;51.240;9.964;2023-04-25T07:52:02;97244.72;;;5.71;100.00
54910;BME280;63189;51.240;9.964;2023-04-25T07:54:27;97246.13;;;5.86;100.00
54910;BME280;63189;51.240;9.964;2023-04-25T07:56:53;97247.63;;;5.96;100.00
54910;BME280;63189;51.240;9.964;2023-04-25T07:59:19;97251.03;;;5.98;100.00
54910;BME280;63189;51.240;9.964;2023-04-25T08:01:44;97252.72;;;5.99;100.00
54910;BME280;63189;51.240;9.964;2023-04-25T08:04:09;97264.78;;;6.00;100.00
54910;BME280;63189;51.240;9.964;2023-04-25T08:06:35;97257.81;;;6.02;100.00
54910;BME280;63189;51.240;9.964;2023-04-25T08:09:01;97265.41;;;6.10;100.00
54910;BME280;63189;51.240;9.964;2023-04-25T08:11:26;97262.78;;;6.12;100.00
54910;BME280;63189;51.240;9.964;2023-04-25T08:13:52;97265.28;;;6.15;100.00
54910;BME280;63189;51.240;9.964;2023-04-25T08:16:17;97266.97;;;6.17;100.00
54910;BME280;63189;51.240;9.964;2023-04-25T08:18:42;97273.06;;;6.15;100.00
54910;BME280;63189;51.240;9.964;2023-04-25T08:21:08;97274.69;;;6.19;100.00
54910;BME280;63189;51.240;9.964;2023-04-25T08:23:36;97269.59;;;6.16;100.00
54910;BME280;63189;51.240;9.964;2023-04-25T08:26:02;97279.75;;;6.23;100.00
54910;BME280;63189;51.240;9.964;2023-04-25T08:28:27;97280.41;;;6.31;100.00
54910;BME280;63189;51.240;9.964;2023-04-25T08:30:52;97276.72;;;6.42;100.00
54910;BME280;63189;51.240;9.964;2023-04-25T08:33:18;97280.03;;;6.48;99.03
54910;BME280;63189;51.240;9.964;2023-04-25T08:35:44;97279.66;;;6.62;98.35
54910;BME280;63189;51.240;9.964;2023-04-25T08:38:09;97279.09;;;6.83;97.56
54910;BME280;63189;51.240;9.964;2023-04-25T08:40:37;97278.22;;;7.15;98.56
54910;BME280;63189;51.240;9.964;2023-04-25T08:43:04;97278.47;;;7.67;93.83
54910;BME280;63189;51.240;9.964;2023-04-25T08:45:32;97282.91;;;8.19;92.65
54910;BME280;63189;51.240;9.964;2023-04-25T08:47:57;97285.75;;;8.66;90.42
54910;BME280;63189;51.240;9.964;2023-04-25T08:50:24;97292.09;;;9.09;89.37
54910;BME280;63189;51.240;9.964;2023-04-25T08:52:53;97288.13;;;9.22;83.88
54910;BME280;63189;51.240;9.964;2023-04-25T08:55:21;97292.16;;;9.31;83.75
54910;BME280;63189;51.240;9.964;2023-04-25T08:57:47;97297.59;;;9.00;83.66
54910;BME280;63189;51.240;9.964;2023-04-25T09:00:12;97301.78;;;9.04;83.14
54910;BME280;63189;51.240;9.964;2023-04-25T09:02:42;97306.75;;;9.35;80.39
54910;BME280;63189;51.240;9.964;2023-04-25T09:05:12;97306.09;;;9.53;81.09
54910;BME280;63189;51.240;9.964;2023-04-25T09:07:38;97308.97;;;9.69;78.35
54910;BME280;63189;51.240;9.964;2023-04-25T09:10:04;97315.13;;;9.66;79.00
54910;BME280;63189;51.240;9.964;2023-04-25T09:12:29;97316.50;;;9.53;76.34
54910;BME280;63189;51.240;9.964;2023-04-25T09:15:10;97323.66;;;9.23;74.17
54910;BME280;63189;51.240;9.964;2023-04-25T09:17:36;97320.78;;;9.06;77.49
54910;BME280;63189;51.240;9.964;2023-04-25T09:20:13;97328.91;;;9.21;79.33
54910;BME280;63189;51.240;9.964;2023-04-25T09:22:40;97332.38;;;9.45;77.25
54910;BME280;63189;51.240;9.964;2023-04-25T09:25:10;97328.53;;;9.32;76.63
54910;BME280;63189;51.240;9.964;2023-04-25T09:27:35;97333.47;;;9.15;76.54
54910;BME280;63189;51.240;9.964;2023-04-25T09:30:02;97336.56;;;9.01;78.43
54910;BME280;63189;51.240;9.964;2023-04-25T09:32:28;97341.63;;;8.79;75.71
54910;BME280;63189;51.240;9.964;2023-04-25T09:34:57;97350.91;;;8.60;76.34
54910;BME280;63189;51.240;9.964;2023-04-25T09:37:24;97360.19;;;8.41;75.92
54910;BME280;63189;51.240;9.964;2023-04-25T09:39:55;97359.59;;;8.31;76.36
54910;BME280;63189;51.240;9.964;2023-04-25T09:42:25;97365.84;;;8.25;78.43
54910;BME280;63189;51.240;9.964;2023-04-25T09:44:53;97365.84;;;8.25;78.54
54910;BME280;63189;51.240;9.964;2023-04-25T09:47:19;97365.84;;;8.25;77.73
54910;BME280;63189;51.240;9.964;2023-04-25T09:49:46;97365.50;;;8.37;78.73
54910;BME280;63189;51.240;9.964;2023-04-25T09:52:17;97366.78;;;8.51;77.19
54910;BME280;63189;51.240;9.964;2023-04-25T09:54:44;97358.81;;;8.83;74.45
54910;BME280;63189;51.240;9.964;2023-04-25T09:57:20;97363.47;;;9.25;75.65
54910;BME280;63189;51.240;9.964;2023-04-25T09:59:49;97361.94;;;9.68;73.04
54910;BME280;63189;51.240;9.964;2023-04-25T10:02:16;97362.34;;;10.04;68.49
54910;BME280;63189;51.240;9.964;2023-04-25T10:04:44;97359.91;;;10.21;66.37
54910;BME280;63189;51.240;9.964;2023-04-25T10:07:12;97359.00;;;10.24;64.70
54910;BME280;63189;51.240;9.964;2023-04-25T10:09:39;97358.69;;;10.31;65.02
54910;BME280;63189;51.240;9.964;2023-04-25T10:12:06;97363.13;;;10.29;66.35
54910;BME280;63189;51.240;9.964;2023-04-25T10:14:33;97369.81;;;10.13;64.11
54910;BME280;63189;51.240;9.964;2023-04-25T10:16:59;97383.13;;;9.82;62.35
54910;BME280;63189;51.240;9.964;2023-04-25T10:19:26;97377.66;;;9.41;60.73
54910;BME280;63189;51.240;9.964;2023-04-25T10:22:01;97380.28;;;9.15;60.88
54910;BME280;63189;51.240;9.964;2023-04-25T10:24:27;97386.31;;;8.90;60.97
54910;BME280;63189;51.240;9.964;2023-04-25T10:26:53;97397.25;;;8.74;63.28
54910;BME280;63189;51.240;9.964;2023-04-25T10:29:26;97401.00;;;8.65;61.70
54910;BME280;63189;51.240;9.964;2023-04-25T10:31:51;97406.28;;;8.62;60.40
54910;BME280;63189;51.240;9.964;2023-04-25T10:34:17;97405.66;;;8.54;59.98
54910;BME280;63189;51.240;9.964;2023-04-25T10:36:49;97407.41;;;8.55;60.13
54910;BME280;63189;51.240;9.964;2023-04-25T10:39:22;97412.53;;;8.56;61.31
54910;BME280;63189;51.240;9.964;2023-04-25T10:41:57;97410.72;;;8.58;60.08
54910;BME280;63189;51.240;9.964;2023-04-25T10:44:26;97412.47;;;8.58;57.71
54910;BME280;63189;51.240;9.964;2023-04-25T10:46:55;97416.03;;;8.55;58.69
54910;BME280;63189;51.240;9.964;2023-04-25T10:49:34;97421.47;;;8.74;60.50
54910;BME280;63189;51.240;9.964;2023-04-25T10:54:47;97421.66;;;9.22;61.57
54910;BME280;63189;51.240;9.964;2023-04-25T11:00:09;97414.19;;;9.38;55.69
54910;BME280;63189;51.240;9.964;2023-04-25T11:02:58;97422.97;;;9.34;54.55
54910;BME280;63189;51.240;9.964;2023-04-25T11:07:53;97424.72;;;9.09;55.57
54910;BME280;63189;51.240;9.964;2023-04-25T11:10:31;97424.97;;;9.01;55.84
54910;BME280;63189;51.240;9.964;2023-04-25T11:12:57;97422.47;;;8.98;56.94
54910;BME280;63189;51.240;9.964;2023-04-25T11:15:24;97418.72;;;9.07;58.92
54910;BME280;63189;51.240;9.964;2023-04-25T11:17:54;97419.41;;;9.12;57.35
54910;BME280;63189;51.240;9.964;2023-04-25T11:20:19;97420.09;;;9.17;55.99
54910;BME280;63189;51.240;9.964;2023-04-25T11:22:46;97417.88;;;9.05;54.87
54910;BME280;63189;51.240;9.964;2023-04-25T11:25:14;97423.56;;;8.91;54.95
54910;BME280;63189;51.240;9.964;2023-04-25T11:30:15;97427.84;;;8.65;55.43
54910;BME280;63189;51.240;9.964;2023-04-25T11:32:41;97427.28;;;8.56;57.13
54910;BME280;63189;51.240;9.964;2023-04-25T11:35:08;97431.94;;;8.45;56.46
54910;BME280;63189;51.240;9.964;2023-04-25T11:37:34;97434.72;;;8.38;56.56
54910;BME280;63189;51.240;9.964;2023-04-25T11:40:00;97436.56;;;8.33;57.12
54910;BME280;63189;51.240;9.964;2023-04-25T11:42:25;97434.72;;;8.38;57.88
54910;BME280;63189;51.240;9.964;2023-04-25T11:44:51;97422.97;;;8.55;56.94
54910;BME280;63189;51.240;9.964;2023-04-25T11:47:16;97423.84;;;8.55;55.74
54910;BME280;63189;51.240;9.964;2023-04-25T11:49:41;97433.31;;;8.56;55.99
54910;BME280;63189;51.240;9.964;2023-04-25T11:52:07;97425.53;;;8.56;55.48
54910;BME280;63189;51.240;9.964;2023-04-25T11:54:35;97424.63;;;8.57;56.61
54910;BME280;63189;51.240;9.964;2023-04-25T11:57:01;97429.59;;;8.65;57.67
54910;BME280;63189;51.240;9.964;2023-04-25T11:59:26;97431.97;;;8.71;56.90
54910;BME280;63189;51.240;9.964;2023-04-25T12:01:52;97441.38;;;8.75;57.42
54910;BME280;63189;51.240;9.964;2023-04-25T12:04:22;97443.38;;;8.67;56.22
54910;BME280;63189;51.240;9.964;2023-04-25T12:06:50;97449.59;;;8.61;56.25
54910;BME280;63189;51.240;9.964;2023-04-25T12:09:20;97449.75;;;8.57;56.23
54910;BME280;63189;51.240;9.964;2023-04-25T12:11:56;97448.81;;;8.59;58.02
54910;BME280;63189;51.240;9.964;2023-04-25T12:14:27;97454.00;;;8.59;57.01
54910;BME280;63189;51.240;9.964;2023-04-25T12:16:55;97452.16;;;8.63;55.14
54910;BME280;63189;51.240;9.964;2023-04-25T12:19:22;97454.97;;;8.57;51.76
54910;BME280;63189;51.240;9.964;2023-04-25T12:21:48;97451.41;;;8.59;53.38
54910;BME280;63189;51.240;9.964;2023-04-25T12:24:24;97452.81;;;8.70;53.29
54910;BME280;63189;51.240;9.964;2023-04-25T12:26:58;97457.97;;;8.71;51.28
54910;BME280;63189;51.240;9.964;2023-04-25T12:29:27;97467.28;;;8.78;52.09
54910;BME280;63189;51.240;9.964;2023-04-25T12:31:54;97459.38;;;8.81;52.23
54910;BME280;63189;51.240;9.964;2023-04-25T12:34:23;97467.47;;;8.72;50.91
54910;BME280;63189;51.240;9.964;2023-04-25T12:36:50;97457.97;;;8.71;52.97
54910;BME280;63189;51.240;9.964;2023-04-25T12:39:21;97461.66;;;8.64;51.20
54910;BME280;63189;51.240;9.964;2023-04-25T12:41:47;97456.78;;;8.53;50.90
54910;BME280;63189;51.240;9.964;2023-04-25T12:44:13;97468.84;;;8.56;51.81
54910;BME280;63189;51.240;9.964;2023-04-25T12:46:39;97471.66;;;8.48;51.02
54910;BME280;63189;51.240;9.964;2023-04-25T12:49:06;97469.19;;;8.44;51.51
54910;BME280;63189;51.240;9.964;2023-04-25T12:51:33;97461.53;;;8.39;52.10
54910;BME280;63189;51.240;9.964;2023-04-25T12:53:59;97466.94;;;8.31;52.61
54910;BME280;63189;51.240;9.964;2023-04-25T12:56:26;97471.41;;;8.26;53.21
54910;BME280;63189;51.240;9.964;2023-04-25T12:58:51;97467.03;;;8.28;52.66
54910;BME280;63189;51.240;9.964;2023-04-25T13:01:17;97480.72;;;8.35;54.12
54910;BME280;63189;51.240;9.964;2023-04-25T13:03:42;97478.13;;;8.33;54.34
54910;BME280;63189;51.240;9.964;2023-04-25T13:06:08;97474.81;;;8.28;54.07
54910;BME280;63189;51.240;9.964;2023-04-25T13:08:34;97485.81;;;8.38;54.21
54910;BME280;63189;51.240;9.964;2023-04-25T13:11:00;97477.97;;;8.39;54.86
54910;BME280;63189;51.240;9.964;2023-04-25T13:13:25;97480.63;;;8.38;52.75
54910;BME280;63189;51.240;9.964;2023-04-25T13:15:53;97487.63;;;8.36;52.99